createdAt,value
2023-08-30T00:00:55.475Z,16.22
2023-08-30T00:10:59.681Z,16.21
2023-08-30T00:21:03.871Z,16.08
2023-08-30T00:31:07.385Z,15.90
2023-08-30T00:41:11.453Z,15.87
2023-08-30T00:51:14.474Z,15.74
2023-08-30T01:01:19.753Z,15.60
2023-08-30T01:11:28.093Z,15.58
2023-08-30T01:21:45.928Z,15.56
2023-08-30T01:31:51.046Z,15.46
2023-08-30T01:41:59.791Z,15.33
2023-08-30T01:52:04.541Z,15.07
2023-08-30T02:02:07.241Z,14.94
2023-08-30T02:12:16.740Z,14.95
2023-08-30T02:22:19.513Z,14.89
2023-08-30T02:32:23.560Z,14.71
2023-08-30T02:42:27.139Z,14.67
2023-08-30T02:52:31.227Z,14.63
2023-08-30T03:02:34.105Z,14.54
2023-08-30T03:12:38.197Z,14.42
2023-08-30T03:22:40.910Z,14.34
2023-08-30T03:32:45.002Z,14.25
2023-08-30T03:42:47.728Z,14.19
2023-08-30T03:52:51.897Z,14.13
2023-08-30T04:02:54.654Z,14.03
2023-08-30T04:12:58.770Z,13.99
2023-08-30T04:23:02.669Z,14.05
2023-08-30T04:33:07.382Z,13.90
2023-08-30T04:43:10.143Z,13.85
2023-08-30T04:53:14.169Z,13.68
2023-08-30T05:03:16.892Z,13.58
2023-08-30T05:13:21.134Z,13.65
2023-08-30T05:23:23.889Z,13.73
2023-08-30T05:33:28.036Z,13.59
2023-08-30T05:43:30.709Z,13.65
2023-08-30T05:53:34.833Z,13.65
2023-08-30T06:03:37.628Z,13.86
2023-08-30T06:13:41.684Z,13.99
2023-08-30T06:23:44.332Z,14.04
2023-08-30T06:33:49.266Z,14.36
2023-08-30T06:43:51.936Z,14.84
2023-08-30T06:54:01.336Z,14.94
2023-08-30T07:04:04.391Z,15.13
2023-08-30T07:14:08.589Z,15.17
2023-08-30T07:24:11.494Z,15.26
2023-08-30T07:34:15.941Z,15.56
2023-08-30T07:44:20.840Z,15.67
2023-08-30T07:54:25.024Z,15.75
2023-08-30T08:04:27.952Z,16.22
2023-08-30T08:14:32.227Z,16.47
2023-08-30T08:24:35.051Z,16.77
2023-08-30T08:34:39.238Z,17.62
2023-08-30T08:44:43.657Z,18.23
2023-08-30T08:54:47.885Z,18.86
2023-08-30T09:04:50.727Z,19.17
2023-08-30T09:14:58.911Z,19.02
2023-08-30T09:25:01.837Z,19.76
2023-08-30T09:35:08.328Z,20.55
2023-08-30T09:45:20.058Z,20.42
2023-08-30T09:55:25.789Z,20.22
2023-08-30T10:05:29.090Z,19.86
2023-08-30T10:15:37.172Z,19.71
2023-08-30T10:25:40.654Z,19.51
2023-08-30T10:35:52.460Z,19.09
2023-08-30T10:46:01.695Z,19.05
2023-08-30T10:56:15.653Z,18.81
2023-08-30T11:06:20.427Z,18.65
2023-08-30T11:16:27.524Z,18.95
2023-08-30T11:26:30.479Z,18.69
2023-08-30T11:36:37.767Z,18.34
2023-08-30T11:46:40.489Z,18.35
2023-08-30T11:56:45.090Z,18.46
2023-08-30T12:06:54.321Z,18.97
2023-08-30T12:17:01.816Z,18.51
2023-08-30T12:27:05.758Z,18.67
2023-08-30T12:37:09.785Z,18.61
2023-08-30T12:47:15.004Z,18.00
2023-08-30T12:57:19.029Z,17.40
2023-08-30T13:07:21.666Z,17.01
2023-08-30T13:17:25.678Z,16.76
2023-08-30T13:27:29.395Z,16.65
2023-08-30T13:37:33.506Z,16.76
2023-08-30T13:47:36.218Z,17.13
2023-08-30T13:57:40.281Z,18.03
2023-08-30T14:07:42.942Z,18.38
2023-08-30T14:17:46.965Z,18.17
2023-08-30T14:27:50.061Z,17.87
2023-08-30T14:37:54.074Z,17.55
2023-08-30T14:47:56.759Z,17.23
2023-08-30T14:58:00.832Z,16.85
2023-08-30T15:08:03.754Z,17.24
2023-08-30T15:18:08.127Z,17.59
2023-08-30T15:28:10.943Z,17.55
2023-08-30T15:38:15.178Z,17.59
2023-08-30T15:48:18.044Z,17.53
2023-08-30T15:58:22.365Z,17.69
2023-08-30T16:08:28.777Z,17.63
2023-08-30T16:18:33.354Z,16.42
2023-08-30T16:28:37.597Z,16.08
2023-08-30T16:38:41.839Z,16.13
2023-08-30T16:48:44.517Z,16.29
2023-08-30T16:58:48.672Z,16.26
2023-08-30T17:08:51.586Z,16.26
2023-08-30T17:18:55.582Z,16.02
2023-08-30T17:28:58.277Z,16.14
2023-08-30T17:39:02.283Z,16.20
2023-08-30T17:49:05.027Z,16.22
2023-08-30T17:59:09.150Z,16.03
2023-08-30T18:09:15.726Z,15.92
2023-08-30T18:19:20.186Z,15.90
2023-08-30T18:29:24.704Z,15.80
2023-08-30T18:39:28.869Z,15.71
2023-08-30T18:49:31.636Z,15.56
2023-08-30T18:59:36.003Z,15.62
2023-08-30T19:09:39.276Z,15.60
2023-08-30T19:19:43.354Z,15.63
2023-08-30T19:29:47.501Z,15.56
2023-08-30T19:39:51.665Z,15.58
2023-08-30T19:49:54.413Z,15.58
2023-08-30T19:59:58.393Z,15.45
2023-08-30T20:10:01.090Z,15.44
2023-08-30T20:20:08.106Z,15.36
2023-08-30T20:30:11.580Z,15.13
2023-08-30T20:40:16.116Z,14.85
2023-08-30T20:50:18.791Z,14.62
2023-08-30T21:00:23.008Z,14.42
2023-08-30T21:10:25.807Z,14.20
2023-08-30T21:20:29.783Z,13.99
2023-08-30T21:30:33.434Z,13.90
2023-08-30T21:40:38.689Z,13.88
2023-08-30T21:50:41.459Z,13.80
2023-08-30T22:00:45.508Z,13.75
2023-08-30T22:10:48.208Z,13.68
2023-08-30T22:20:52.684Z,13.69
2023-08-30T22:30:55.549Z,13.60
2023-08-30T22:41:00.524Z,13.56
2023-08-30T22:51:05.075Z,13.44
2023-08-30T23:01:09.939Z,13.30
2023-08-30T23:11:12.752Z,13.16
2023-08-30T23:21:17.413Z,12.93
2023-08-30T23:31:20.246Z,12.97
2023-08-30T23:41:24.241Z,12.88
2023-08-30T23:51:26.952Z,12.86
